createdAt,value
2022-10-15T00:01:35.575Z,7.82
2022-10-15T00:04:03.283Z,7.83
2022-10-15T00:06:32.820Z,7.86
2022-10-15T00:09:00.541Z,7.80
2022-10-15T00:11:29.281Z,7.75
2022-10-15T00:13:59.286Z,7.76
2022-10-15T00:16:28.690Z,7.77
2022-10-15T00:18:58.996Z,7.90
2022-10-15T00:21:27.097Z,7.99
2022-10-15T00:23:55.832Z,7.84
2022-10-15T00:26:26.181Z,7.74
2022-10-15T00:28:57.101Z,7.57
2022-10-15T00:31:27.248Z,7.52
2022-10-15T00:33:57.786Z,7.58
2022-10-15T00:36:28.489Z,7.44
2022-10-15T00:38:57.286Z,7.53
2022-10-15T00:41:33.733Z,7.53
2022-10-15T00:44:23.241Z,7.52
2022-10-15T00:46:56.767Z,7.68
2022-10-15T00:49:31.255Z,7.67
2022-10-15T00:52:13.414Z,7.67
2022-10-15T00:54:43.923Z,7.72
2022-10-15T00:57:11.773Z,7.79
2022-10-15T00:59:43.493Z,7.85
2022-10-15T01:02:12.269Z,7.85
2022-10-15T01:04:41.734Z,7.88
2022-10-15T01:07:09.613Z,7.88
2022-10-15T01:09:42.880Z,7.88
2022-10-15T01:12:24.629Z,7.91
2022-10-15T01:15:16.535Z,7.95
2022-10-15T01:17:55.050Z,8.01
2022-10-15T01:20:47.489Z,7.97
2022-10-15T01:23:36.819Z,7.93
2022-10-15T01:26:23.132Z,7.93
2022-10-15T01:28:54.703Z,7.92
2022-10-15T01:31:29.135Z,7.88
2022-10-15T01:34:02.822Z,7.86
2022-10-15T01:36:55.360Z,7.83
2022-10-15T01:39:31.087Z,7.89
2022-10-15T01:42:31.857Z,7.87
2022-10-15T01:45:07.433Z,7.85
2022-10-15T01:47:55.471Z,7.78
2022-10-15T01:50:26.096Z,7.85
2022-10-15T01:52:56.236Z,7.78
2022-10-15T01:55:25.869Z,7.77
2022-10-15T01:57:56.078Z,7.75
2022-10-15T02:00:26.704Z,7.73
2022-10-15T02:02:54.522Z,7.68
2022-10-15T02:05:26.128Z,7.67
2022-10-15T02:08:05.616Z,7.63
2022-10-15T02:10:48.776Z,7.64
2022-10-15T02:13:26.424Z,7.62
2022-10-15T02:16:07.069Z,7.66
2022-10-15T02:18:57.113Z,7.70
2022-10-15T02:21:35.476Z,7.72
2022-10-15T02:24:12.349Z,7.73
2022-10-15T02:26:43.602Z,7.68
2022-10-15T02:29:13.639Z,7.67
2022-10-15T02:31:44.268Z,7.72
2022-10-15T02:34:15.668Z,7.71
2022-10-15T02:36:44.023Z,7.74
2022-10-15T02:39:13.753Z,7.70
2022-10-15T02:41:42.505Z,7.68
2022-10-15T02:44:13.665Z,7.61
2022-10-15T02:46:41.494Z,7.60
2022-10-15T02:49:11.393Z,7.60
2022-10-15T02:51:39.388Z,7.62
2022-10-15T02:54:08.749Z,7.62
2022-10-15T02:56:39.641Z,7.62
2022-10-15T02:59:08.267Z,7.60
2022-10-15T03:01:35.870Z,7.58
2022-10-15T03:04:06.214Z,7.56
2022-10-15T03:06:34.951Z,7.53
2022-10-15T03:09:03.032Z,7.52
2022-10-15T03:11:32.513Z,7.46
2022-10-15T03:14:00.176Z,7.46
2022-10-15T03:16:28.519Z,7.47
2022-10-15T03:18:56.480Z,7.40
2022-10-15T03:21:24.799Z,7.36
2022-10-15T03:23:58.801Z,7.28
2022-10-15T03:26:27.972Z,7.31
2022-10-15T03:28:55.982Z,7.24
2022-10-15T03:31:36.425Z,7.27
2022-10-15T03:34:05.388Z,7.23
2022-10-15T03:36:33.835Z,7.17
2022-10-15T03:39:02.442Z,7.21
2022-10-15T03:41:30.928Z,7.14
2022-10-15T03:44:06.613Z,7.15
2022-10-15T03:46:37.160Z,7.13
2022-10-15T03:49:05.879Z,7.18
2022-10-15T03:51:33.632Z,7.19
2022-10-15T03:54:07.330Z,7.21
2022-10-15T03:56:42.522Z,7.19
2022-10-15T03:59:24.942Z,7.16
2022-10-15T04:01:59.551Z,7.11
2022-10-15T04:04:28.390Z,7.13
2022-10-15T04:06:56.846Z,7.02
2022-10-15T04:09:24.934Z,7.14
2022-10-15T04:11:53.425Z,7.10
2022-10-15T04:14:21.679Z,7.16
2022-10-15T04:16:50.172Z,7.21
2022-10-15T04:19:23.346Z,7.27
2022-10-15T04:22:00.713Z,7.28
2022-10-15T04:24:33.424Z,7.35
2022-10-15T04:27:01.258Z,7.36
2022-10-15T04:29:29.580Z,7.38
2022-10-15T04:34:50.563Z,7.50
2022-10-15T04:37:26.456Z,7.51
2022-10-15T04:39:54.233Z,7.54
2022-10-15T04:42:22.449Z,7.54
2022-10-15T04:44:50.430Z,7.61
2022-10-15T04:47:18.769Z,7.64
2022-10-15T04:49:53.213Z,7.68
2022-10-15T04:52:44.480Z,7.75
2022-10-15T04:55:14.411Z,7.70
2022-10-15T04:57:42.105Z,7.82
2022-10-15T05:00:10.849Z,7.80
2022-10-15T05:02:43.294Z,7.86
2022-10-15T05:05:33.517Z,7.92
2022-10-15T05:08:05.916Z,7.93
2022-10-15T05:10:46.038Z,7.92
2022-10-15T05:13:15.032Z,7.91
2022-10-15T05:15:43.143Z,8.01
2022-10-15T05:18:11.423Z,8.04
2022-10-15T05:20:51.872Z,8.08
2022-10-15T05:23:20.642Z,8.09
2022-10-15T05:26:03.621Z,8.11
2022-10-15T05:28:32.256Z,8.08
2022-10-15T05:31:19.295Z,8.09
2022-10-15T05:33:48.630Z,8.14
2022-10-15T05:36:19.868Z,8.26
2022-10-15T05:38:57.543Z,8.25
2022-10-15T05:41:26.590Z,8.25
2022-10-15T05:43:57.861Z,8.33
2022-10-15T05:46:29.532Z,8.45
2022-10-15T05:48:58.683Z,8.66
2022-10-15T05:51:29.189Z,8.78
2022-10-15T05:54:03.826Z,8.95
2022-10-15T05:56:32.489Z,9.03
2022-10-15T05:59:00.176Z,9.04
2022-10-15T06:01:28.873Z,9.14
2022-10-15T06:03:56.773Z,9.17
2022-10-15T06:06:27.513Z,9.35
2022-10-15T06:08:56.606Z,9.30
2022-10-15T06:11:24.383Z,9.39
2022-10-15T06:13:52.241Z,9.55
2022-10-15T06:16:23.684Z,9.65
2022-10-15T06:18:54.180Z,9.85
2022-10-15T06:21:22.272Z,10.08
2022-10-15T06:23:50.774Z,10.36
2022-10-15T06:26:18.450Z,10.54
2022-10-15T06:28:49.788Z,10.74
2022-10-15T06:31:17.598Z,10.92
2022-10-15T06:33:45.374Z,10.88
2022-10-15T06:36:16.762Z,10.87
2022-10-15T06:38:47.738Z,11.08
2022-10-15T06:41:16.940Z,11.13
2022-10-15T06:43:47.822Z,10.96
2022-10-15T06:46:16.206Z,10.94
2022-10-15T06:48:44.021Z,10.86
2022-10-15T06:51:12.390Z,10.87
2022-10-15T06:53:45.047Z,10.88
2022-10-15T06:56:12.747Z,11.01
2022-10-15T06:58:43.521Z,11.12
2022-10-15T07:01:11.965Z,11.14
2022-10-15T07:03:39.889Z,11.36
2022-10-15T07:06:09.740Z,11.59
2022-10-15T07:08:37.581Z,11.74
2022-10-15T07:11:07.779Z,11.87
2022-10-15T07:13:35.660Z,12.12
2022-10-15T07:16:06.328Z,12.27
2022-10-15T07:18:35.641Z,12.46
2022-10-15T07:21:04.747Z,12.63
2022-10-15T07:23:33.216Z,12.67
2022-10-15T07:26:01.844Z,12.91
2022-10-15T07:28:29.798Z,13.09
2022-10-15T07:31:03.291Z,13.31
2022-10-15T07:33:33.751Z,13.59
2022-10-15T07:36:06.366Z,13.84
2022-10-15T07:38:35.063Z,13.88
2022-10-15T07:41:04.635Z,13.88
2022-10-15T07:43:34.935Z,13.90
2022-10-15T07:46:03.810Z,13.94
2022-10-15T07:48:32.389Z,14.04
2022-10-15T07:51:05.469Z,13.92
2022-10-15T07:53:34.601Z,13.75
2022-10-15T07:56:06.358Z,13.90
2022-10-15T07:58:37.838Z,13.95
2022-10-15T08:01:07.383Z,13.97
2022-10-15T08:03:36.070Z,14.03
2022-10-15T08:06:06.810Z,14.12
2022-10-15T08:08:36.342Z,14.09
2022-10-15T08:11:14.749Z,14.13
2022-10-15T08:13:43.652Z,14.36
2022-10-15T08:16:14.020Z,14.62
2022-10-15T08:18:43.686Z,14.82
2022-10-15T08:21:12.238Z,15.07
2022-10-15T08:23:40.329Z,15.20
2022-10-15T08:26:08.602Z,15.43
2022-10-15T08:28:36.790Z,15.44
2022-10-15T08:31:06.275Z,15.49
2022-10-15T08:33:35.819Z,15.61
2022-10-15T08:36:08.104Z,15.72
2022-10-15T08:38:36.655Z,15.79
2022-10-15T08:41:12.361Z,16.01
2022-10-15T08:43:44.060Z,16.15
2022-10-15T08:46:21.577Z,16.20
2022-10-15T08:48:53.983Z,16.26
2022-10-15T08:51:26.982Z,16.48
2022-10-15T08:54:03.305Z,16.44
2022-10-15T08:56:36.845Z,16.38
2022-10-15T08:59:32.109Z,16.13
2022-10-15T09:02:24.244Z,16.19
2022-10-15T09:05:16.888Z,16.15
2022-10-15T09:08:06.766Z,16.19
2022-10-15T09:10:41.410Z,16.37
2022-10-15T09:13:22.012Z,16.43
2022-10-15T09:16:13.165Z,16.37
2022-10-15T09:18:43.994Z,16.32
2022-10-15T09:21:14.529Z,16.15
2022-10-15T09:23:44.220Z,16.12
2022-10-15T09:26:49.949Z,16.20
2022-10-15T09:29:29.477Z,16.14
2022-10-15T09:32:31.660Z,16.05
2022-10-15T09:35:24.224Z,16.14
2022-10-15T09:38:15.589Z,16.23
2022-10-15T09:41:02.237Z,16.24
2022-10-15T09:43:38.398Z,16.13
2022-10-15T09:46:06.813Z,16.15
2022-10-15T09:48:44.574Z,16.17
2022-10-15T09:51:27.029Z,16.08
2022-10-15T09:54:13.441Z,15.93
2022-10-15T09:56:50.163Z,16.07
2022-10-15T09:59:19.581Z,16.14
2022-10-15T10:02:00.256Z,16.15
2022-10-15T10:04:31.652Z,16.00
2022-10-15T10:07:03.420Z,16.07
2022-10-15T10:09:52.751Z,16.16
2022-10-15T10:12:27.310Z,16.11
2022-10-15T10:14:59.178Z,16.31
2022-10-15T10:17:29.586Z,16.37
2022-10-15T10:20:16.015Z,16.41
2022-10-15T10:22:56.003Z,16.33
2022-10-15T10:25:27.302Z,16.51
2022-10-15T10:27:57.185Z,16.62
2022-10-15T10:30:27.915Z,16.79
2022-10-15T10:32:57.719Z,16.83
2022-10-15T10:35:30.113Z,16.86
2022-10-15T10:37:57.901Z,16.97
2022-10-15T10:40:33.083Z,17.02
2022-10-15T10:43:18.538Z,16.99
2022-10-15T10:46:15.036Z,16.98
2022-10-15T10:48:50.243Z,17.11
2022-10-15T10:51:24.705Z,17.26
2022-10-15T10:53:57.522Z,17.42
2022-10-15T10:56:43.876Z,17.41
2022-10-15T10:59:37.130Z,17.44
2022-10-15T11:02:09.630Z,17.68
2022-10-15T11:04:39.445Z,17.76
2022-10-15T11:07:19.880Z,17.81
2022-10-15T11:09:59.749Z,17.90
2022-10-15T11:12:34.196Z,17.74
2022-10-15T11:15:39.230Z,17.77
2022-10-15T11:18:44.916Z,17.67
2022-10-15T11:21:24.465Z,17.52
2022-10-15T11:24:11.125Z,17.63
2022-10-15T11:27:10.149Z,17.71
2022-10-15T11:30:01.309Z,17.96
2022-10-15T11:33:05.456Z,17.96
2022-10-15T11:35:52.895Z,17.82
2022-10-15T11:38:43.000Z,17.80
2022-10-15T11:41:37.238Z,17.57
2022-10-15T11:44:46.638Z,17.57
2022-10-15T11:47:26.686Z,17.46
2022-10-15T11:50:18.011Z,17.44
2022-10-15T11:52:58.562Z,17.41
2022-10-15T11:55:38.079Z,17.30
2022-10-15T11:58:29.600Z,17.30
2022-10-15T12:01:01.814Z,17.34
2022-10-15T12:03:32.509Z,17.44
2022-10-15T12:06:04.333Z,17.42
2022-10-15T12:08:35.833Z,17.43
2022-10-15T12:11:03.801Z,17.40
2022-10-15T12:13:46.283Z,17.45
2022-10-15T12:16:38.520Z,17.51
2022-10-15T12:19:20.977Z,17.54
2022-10-15T12:22:06.963Z,17.47
2022-10-15T12:24:38.471Z,17.52
2022-10-15T12:27:35.986Z,17.58
2022-10-15T12:30:04.134Z,17.63
2022-10-15T12:32:41.734Z,17.58
2022-10-15T12:35:15.607Z,17.47
2022-10-15T12:37:46.098Z,17.47
2022-10-15T12:40:22.822Z,17.40
2022-10-15T12:42:58.104Z,17.41
2022-10-15T12:45:48.843Z,17.36
2022-10-15T12:48:16.745Z,17.34
2022-10-15T12:50:47.820Z,17.32
2022-10-15T12:53:33.101Z,17.28
2022-10-15T12:56:24.304Z,17.25
2022-10-15T12:58:54.139Z,17.29
2022-10-15T13:01:22.891Z,17.30
2022-10-15T13:03:50.658Z,17.30
2022-10-15T13:06:26.150Z,17.26
2022-10-15T13:09:14.546Z,17.18
2022-10-15T13:11:48.991Z,17.26
2022-10-15T13:14:28.580Z,17.18
2022-10-15T13:17:03.656Z,17.18
2022-10-15T13:19:39.363Z,17.20
2022-10-15T13:22:24.111Z,17.07
2022-10-15T13:24:52.677Z,17.12
2022-10-15T13:27:26.342Z,17.15
2022-10-15T13:30:06.859Z,17.16
2022-10-15T13:32:39.090Z,17.15
2022-10-15T13:35:12.029Z,17.17
2022-10-15T13:37:41.602Z,17.12
2022-10-15T13:40:29.966Z,17.05
2022-10-15T13:43:00.378Z,17.02
2022-10-15T13:45:29.082Z,16.98
2022-10-15T13:47:57.509Z,16.99
2022-10-15T13:50:36.362Z,17.00
2022-10-15T13:53:12.992Z,16.99
2022-10-15T13:55:46.388Z,17.01
2022-10-15T13:58:29.858Z,17.01
2022-10-15T14:01:01.255Z,16.96
2022-10-15T14:03:33.855Z,16.90
2022-10-15T14:06:22.500Z,16.92
2022-10-15T14:08:56.771Z,16.78
2022-10-15T14:11:26.317Z,16.78
2022-10-15T14:13:56.965Z,16.79
2022-10-15T14:16:35.946Z,16.71
2022-10-15T14:19:07.318Z,16.72
2022-10-15T14:21:36.843Z,16.68
2022-10-15T14:24:06.587Z,16.70
2022-10-15T14:26:36.084Z,16.66
2022-10-15T14:29:03.858Z,16.55
2022-10-15T14:31:46.649Z,16.40
2022-10-15T14:34:36.462Z,16.59
2022-10-15T14:37:42.679Z,16.58
2022-10-15T14:40:13.434Z,16.58
2022-10-15T14:42:43.934Z,16.58
2022-10-15T14:45:17.980Z,16.59
2022-10-15T14:48:00.812Z,16.64
2022-10-15T14:50:32.303Z,16.53
2022-10-15T14:53:01.300Z,16.48
2022-10-15T14:55:38.308Z,16.40
2022-10-15T14:58:18.013Z,16.41
2022-10-15T15:00:47.966Z,16.37
2022-10-15T15:03:20.112Z,16.36
2022-10-15T15:05:53.484Z,16.36
2022-10-15T15:08:25.589Z,16.35
2022-10-15T15:10:56.099Z,16.30
2022-10-15T15:13:25.684Z,16.36
2022-10-15T15:15:54.219Z,16.29
2022-10-15T15:18:22.245Z,16.32
2022-10-15T15:20:50.946Z,16.26
2022-10-15T15:23:22.196Z,16.25
2022-10-15T15:25:50.815Z,16.30
2022-10-15T15:28:21.805Z,16.27
2022-10-15T15:31:11.359Z,16.28
2022-10-15T15:33:39.611Z,16.26
2022-10-15T15:36:20.855Z,16.29
2022-10-15T15:38:51.861Z,16.25
2022-10-15T15:41:21.635Z,16.27
2022-10-15T15:43:50.263Z,16.25
2022-10-15T15:46:18.098Z,16.19
2022-10-15T15:48:46.416Z,16.21
2022-10-15T15:51:29.090Z,16.18
2022-10-15T15:53:59.409Z,16.17
2022-10-15T15:56:27.074Z,16.13
2022-10-15T15:58:54.911Z,16.11
2022-10-15T16:01:22.854Z,16.12
2022-10-15T16:03:51.081Z,16.15
2022-10-15T16:06:19.070Z,16.11
2022-10-15T16:08:47.664Z,16.08
2022-10-15T16:11:15.402Z,15.99
2022-10-15T16:13:43.663Z,16.02
2022-10-15T16:16:13.197Z,15.98
2022-10-15T16:18:41.952Z,15.88
2022-10-15T16:21:09.891Z,15.88
2022-10-15T16:23:38.071Z,15.91
2022-10-15T16:26:06.032Z,15.94
2022-10-15T16:28:34.289Z,15.91
2022-10-15T16:31:26.499Z,15.89
2022-10-15T16:33:57.843Z,15.91
2022-10-15T16:36:26.275Z,15.79
2022-10-15T16:38:54.638Z,15.83
2022-10-15T16:41:22.269Z,15.81
2022-10-15T16:43:50.464Z,15.78
2022-10-15T16:46:19.688Z,15.69
2022-10-15T16:48:56.211Z,15.67
2022-10-15T16:51:24.744Z,15.60
2022-10-15T16:53:53.130Z,15.62
2022-10-15T16:56:23.421Z,15.59
2022-10-15T16:58:51.870Z,15.45
2022-10-15T17:01:22.517Z,15.48
2022-10-15T17:03:50.752Z,15.38
2022-10-15T17:06:21.345Z,15.36
2022-10-15T17:08:51.094Z,15.37
2022-10-15T17:11:21.765Z,15.33
2022-10-15T17:13:52.200Z,15.22
2022-10-15T17:16:21.223Z,15.24
2022-10-15T17:21:21.370Z,15.12
2022-10-15T17:23:51.967Z,15.12
2022-10-15T17:26:22.295Z,15.01
2022-10-15T17:28:50.994Z,15.00
2022-10-15T17:31:22.553Z,14.98
2022-10-15T17:33:56.267Z,14.91
2022-10-15T17:36:24.868Z,14.89
2022-10-15T17:38:53.383Z,14.86
2022-10-15T17:41:22.446Z,14.88
2022-10-15T17:43:51.133Z,14.84
2022-10-15T17:46:21.608Z,14.81
2022-10-15T17:48:50.445Z,14.82
2022-10-15T17:51:20.645Z,14.86
2022-10-15T17:53:51.630Z,14.87
2022-10-15T17:56:23.194Z,14.81
2022-10-15T17:58:52.572Z,14.81
2022-10-15T18:01:39.185Z,14.78
2022-10-15T18:04:18.224Z,14.78
2022-10-15T18:06:46.040Z,14.82
2022-10-15T18:09:27.688Z,14.84
2022-10-15T18:12:03.945Z,14.80
2022-10-15T18:14:34.555Z,14.81
2022-10-15T18:17:02.451Z,14.81
2022-10-15T18:19:31.141Z,14.83
2022-10-15T18:21:59.534Z,14.83
2022-10-15T18:24:27.505Z,14.82
2022-10-15T18:26:55.830Z,14.80
2022-10-15T18:29:25.648Z,14.89
2022-10-15T18:31:57.674Z,14.89
2022-10-15T18:34:28.180Z,14.91
2022-10-15T18:36:56.634Z,14.90
2022-10-15T18:39:25.288Z,14.94
2022-10-15T18:41:54.204Z,14.97
2022-10-15T18:44:23.483Z,14.93
2022-10-15T18:46:52.270Z,15.01
2022-10-15T18:49:21.696Z,15.01
2022-10-15T18:51:51.922Z,15.07
2022-10-15T18:54:21.105Z,15.03
2022-10-15T18:56:48.913Z,15.04
2022-10-15T18:59:20.332Z,15.00
2022-10-15T19:01:49.913Z,14.97
2022-10-15T19:04:19.654Z,14.94
2022-10-15T19:06:51.072Z,14.94
2022-10-15T19:09:23.063Z,14.91
2022-10-15T19:11:53.706Z,14.89
2022-10-15T19:14:22.579Z,14.94
2022-10-15T19:16:50.929Z,14.92
2022-10-15T19:19:21.413Z,14.90
2022-10-15T19:21:50.513Z,14.96
2022-10-15T19:24:20.002Z,14.89
2022-10-15T19:26:48.662Z,14.98
2022-10-15T19:29:17.324Z,14.91
2022-10-15T19:31:49.496Z,15.03
2022-10-15T19:34:17.708Z,15.04
2022-10-15T19:36:48.787Z,15.04
2022-10-15T19:39:20.535Z,15.01
2022-10-15T19:41:49.421Z,15.10
2022-10-15T19:44:20.202Z,15.05
2022-10-15T19:46:48.432Z,15.07
2022-10-15T19:49:16.548Z,15.00
2022-10-15T19:51:46.897Z,15.01
2022-10-15T19:54:15.592Z,14.93
2022-10-15T19:56:43.653Z,14.97
2022-10-15T19:59:12.099Z,14.93
2022-10-15T20:01:40.012Z,14.91
2022-10-15T20:04:08.327Z,14.89
2022-10-15T20:06:38.507Z,14.87
2022-10-15T20:09:07.879Z,14.88
2022-10-15T20:11:37.330Z,14.82
2022-10-15T20:14:06.081Z,14.79
2022-10-15T20:16:33.903Z,14.73
2022-10-15T20:19:04.208Z,14.71
2022-10-15T20:21:33.032Z,14.67
2022-10-15T20:24:05.158Z,14.64
2022-10-15T20:26:34.144Z,14.65
2022-10-15T20:29:02.793Z,14.58
2022-10-15T20:31:33.300Z,14.55
2022-10-15T20:34:03.210Z,14.52
2022-10-15T20:36:31.844Z,14.42
2022-10-15T20:39:01.504Z,14.35
2022-10-15T20:41:29.358Z,14.36
2022-10-15T20:43:57.942Z,14.32
2022-10-15T20:46:41.348Z,14.26
2022-10-15T20:49:22.452Z,14.20
2022-10-15T20:51:51.214Z,14.09
2022-10-15T20:54:19.883Z,14.06
2022-10-15T20:56:48.431Z,14.05
2022-10-15T20:59:16.514Z,13.94
2022-10-15T21:01:44.923Z,14.02
2022-10-15T21:04:13.383Z,13.98
2022-10-15T21:06:41.163Z,13.99
2022-10-15T21:09:09.175Z,13.96
2022-10-15T21:11:42.407Z,14.00
2022-10-15T21:14:11.364Z,14.00
2022-10-15T21:16:40.897Z,14.05
2022-10-15T21:19:09.489Z,14.06
2022-10-15T21:21:37.730Z,14.06
2022-10-15T21:24:05.893Z,14.06
2022-10-15T21:26:33.764Z,14.05
2022-10-15T21:29:02.064Z,14.07
2022-10-15T21:31:29.943Z,14.13
2022-10-15T21:33:58.507Z,14.16
2022-10-15T21:36:28.053Z,14.21
2022-10-15T21:39:04.678Z,14.19
2022-10-15T21:41:34.523Z,14.20
2022-10-15T21:44:04.291Z,14.17
2022-10-15T21:46:33.577Z,14.20
2022-10-15T21:49:02.651Z,14.12
2022-10-15T21:51:33.911Z,14.15
2022-10-15T21:54:03.752Z,14.21
2022-10-15T21:56:32.252Z,14.17
2022-10-15T21:59:00.836Z,14.14
2022-10-15T22:01:33.748Z,14.16
2022-10-15T22:04:08.075Z,14.14
2022-10-15T22:06:36.828Z,14.19
2022-10-15T22:09:05.341Z,14.19
2022-10-15T22:11:39.135Z,14.16
2022-10-15T22:14:11.427Z,14.09
2022-10-15T22:16:40.213Z,14.13
2022-10-15T22:19:09.886Z,14.06
2022-10-15T22:21:38.711Z,14.03
2022-10-15T22:24:18.552Z,14.01
2022-10-15T22:26:49.720Z,13.97
2022-10-15T22:29:26.234Z,13.92
2022-10-15T22:31:55.731Z,13.92
2022-10-15T22:34:24.332Z,13.90
2022-10-15T22:36:52.132Z,13.84
2022-10-15T22:39:20.600Z,13.79
2022-10-15T22:41:48.642Z,13.88
2022-10-15T22:44:20.859Z,13.86
2022-10-15T22:46:49.827Z,13.93
2022-10-15T22:49:20.140Z,13.92
2022-10-15T22:51:48.839Z,13.88
2022-10-15T22:54:18.039Z,13.90
2022-10-15T22:56:47.744Z,13.85
2022-10-15T22:59:16.254Z,13.88
2022-10-15T23:01:46.111Z,13.78
2022-10-15T23:04:16.759Z,13.84
2022-10-15T23:06:44.717Z,13.79
2022-10-15T23:09:18.263Z,13.69
2022-10-15T23:11:46.874Z,13.77
2022-10-15T23:14:16.424Z,13.78
2022-10-15T23:16:46.778Z,13.77
2022-10-15T23:19:17.571Z,13.70
2022-10-15T23:22:05.553Z,13.80
2022-10-15T23:24:33.908Z,13.77
2022-10-15T23:27:02.213Z,13.78
2022-10-15T23:29:30.316Z,13.75
2022-10-15T23:31:58.649Z,13.65
2022-10-15T23:34:27.267Z,13.67
2022-10-15T23:36:55.248Z,13.65
2022-10-15T23:39:26.896Z,13.70
2022-10-15T23:41:55.273Z,13.77
2022-10-15T23:44:26.021Z,13.72
2022-10-15T23:46:54.807Z,13.75
2022-10-15T23:49:23.135Z,13.81
2022-10-15T23:51:50.822Z,13.77
2022-10-15T23:54:18.944Z,13.83
2022-10-15T23:56:47.499Z,13.87
2022-10-15T23:59:16.892Z,13.80
